Amravati (Belora) Airstrip

IN-0065 · 马哈拉施特拉邦, 印度

METAR IN-0065 · Amravati (Belora) Airstrip

使用的METAR站距离机场141 km。
罗盘
风向 的 风向 220° Amravati (Belora) Airstrip 8/26
风: 4 kt, 2 beaufort

3 kt

2 kt
改变
0 ft 2.000 4.000 6.000 8.000 10.000
Cloud Cloud Cloud Cloud
SCT 1.800
Cloud Cloud
FEW 3.000
Cloud Cloud Cloud Cloud Cloud Cloud
BKN 8.000
METAR VANP 141330Z 22004KT 2500 BR SCT018 FEW030CB BKN080 27/26 Q0999 NOSIG

METAR Amravati (Belora) Airstrip - IN-0065

Amravati (Belora) Airstrip是,印度中的小机场。 该机场位于纬度20,81411和经度77,72106。 该机场有一条跑道: 8/26. 这个机场没有ICAO代码,我们使用IN-0065作为参考。 机场在Mumbai FIR中。

该航空气象观测是针对Dr. Babasaheb Ambedkar International Airport在2024年7月14日 19:00, 当地时间进行的。

机场观察

风向为220°,速度为4 kt。

可见度为2,5 km。

有疏云,零星散落的云朵在1.800 ft的高度, 几云 积雨云在3.000 ft的高度 和 碎云在8.000 ft的高度。 破损或更高的上限为8.000 ft。

当前天气为薄雾。 温度和风寒是27 °C。 热指数为32。 露点为26 °C,相对湿度为94%。 海平面上的气压为999 hPa (QNH)。

白天

今天,太阳从05:46升起,在19:03降落。 这适用于Amravati (Belora) Airstrip,世界夏令时可能有所不同。 当地时间与世界标准时间之间的时差为+5 小时 30 分钟。 夏令时目前正在进行中。

公司介绍

我们没有关于这个机场的公司信息。

体会

到Vliegles.nl去找飞行课程,跳伞和其他飞行体验。 浏览页面,了解Amravati (Belora) Airstrip附近所有可用的活动。 你也可以使用搜索功能来寻找你所在地附近的特定飞行课程、跳伞或其他飞行体验。

跑道

Id 标题 侧风 逆风 侧风 %
8/26 075°-255° 2 kt 3 kt 57 %

逆风成分最大的方向会被突出显示,并用于横风计算。 这并不一定意味着这个方向在使用。

乌云

1.800 ft SCT 疏云,零星散落的云朵
3.000 ft FEW 几云 积雨云
8.000 ft BKN 碎云

温度 & 天气

天气 薄雾
温度 27 °C
露点 26 °C
相对湿度 94%
热度指数 32 °C
Kp-index 1 (0-9)

白天

日出
05:40 (10:18)
中午
12:19
日落
18:58

小工具

你想在你的网站上有一个关于Amravati (Belora) Airstrip的当前航空天气(METAR)的小部件吗?

显示HTML代码
报告变更